Time;durP1;ratioP1;P1;durP2;ratioP2;P2;SDS_P1;SDS_P2;PMS_P1;PMS_P2;Temp;Humidity;BMP_temperature;BMP_pressure;BME280_temperature;BME280_humidity;BME280_pressure;Samples;Min_cycle;Max_cycle;Signal;HPM_P1;HPM_P2
2021/08/21 00:00:06;;;;;;;6.75;3.95;;;14.00;99.90;;;;;;5097592;28;20023;-76
2021/08/21 00:02:33;;;;;;;8.45;3.92;;;14.00;99.90;;;;;;5097259;28;20024;-77
2021/08/21 00:04:58;;;;;;;7.45;3.50;;;13.90;99.90;;;;;;5097456;28;20024;-77
2021/08/21 00:07:24;;;;;;;8.60;3.38;;;14.00;99.90;;;;;;5096693;28;20077;-76
2021/08/21 00:09:50;;;;;;;7.13;3.45;;;14.00;99.90;;;;;;5097363;28;20092;-78
2021/08/21 00:12:15;;;;;;;7.35;3.70;;;13.90;99.90;;;;;;5097363;28;20032;-77
2021/08/21 00:14:41;;;;;;;6.60;3.47;;;13.90;99.90;;;;;;5096444;28;20016;-76
2021/08/21 00:17:07;;;;;;;9.20;3.45;;;13.90;99.90;;;;;;5096695;28;20051;-77
2021/08/21 00:19:32;;;;;;;5.97;2.90;;;13.90;99.90;;;;;;5078378;28;20031;-78
2021/08/21 00:21:58;;;;;;;6.13;3.03;;;13.90;99.90;;;;;;5096652;28;20016;-77
2021/08/21 00:24:23;;;;;;;8.20;3.33;;;13.80;99.90;;;;;;5078382;28;20031;-77
2021/08/21 00:26:49;;;;;;;8.32;4.10;;;13.80;99.90;;;;;;5108945;22;20440;-80
2021/08/21 00:29:15;;;;;;;8.10;3.53;;;13.80;99.90;;;;;;5096925;28;20482;-76
2021/08/21 00:31:40;;;;;;;7.65;3.88;;;13.80;99.90;;;;;;5078165;28;20012;-78
2021/08/21 00:34:06;;;;;;;9.48;3.83;;;13.80;99.90;;;;;;5078418;28;20035;-78
2021/08/21 00:36:31;;;;;;;10.02;3.90;;;13.80;99.90;;;;;;5078460;28;20024;-78
2021/08/21 00:38:57;;;;;;;6.30;3.45;;;13.80;99.90;;;;;;5077849;28;20031;-78
2021/08/21 00:41:22;;;;;;;8.18;3.10;;;13.70;99.90;;;;;;5078629;28;20012;-78
2021/08/21 00:43:48;;;;;;;10.15;3.83;;;13.70;99.90;;;;;;5096201;28;20035;-80
2021/08/21 00:46:14;;;;;;;9.88;4.15;;;13.70;99.90;;;;;;5077943;28;20027;-78
2021/08/21 00:48:39;;;;;;;12.82;5.20;;;13.70;99.90;;;;;;5096523;28;20366;-78
2021/08/21 00:51:05;;;;;;;10.60;5.35;;;13.70;99.90;;;;;;5096267;28;20038;-78
2021/08/21 00:53:33;;;;;;;13.32;5.40;;;13.70;99.90;;;;;;5077605;28;20541;-77
2021/08/21 00:56:00;;;;;;;15.23;5.93;;;13.60;99.90;;;;;;5096445;28;20040;-78
2021/08/21 00:58:27;;;;;;;16.73;6.88;;;13.60;99.90;;;;;;5095977;28;20024;-77
2021/08/21 01:00:53;;;;;;;19.20;6.97;;;13.70;99.90;;;;;;5077338;28;20036;-76
2021/08/21 01:03:18;;;;;;;21.45;7.43;;;13.70;99.90;;;;;;5077197;28;20026;-76
2021/08/21 01:05:45;;;;;;;16.83;7.85;;;13.70;99.90;;;;;;5077396;28;20017;-76
2021/08/21 01:08:10;;;;;;;20.52;8.02;;;13.70;99.90;;;;;;5077405;28;20016;-77
2021/08/21 01:10:36;;;;;;;24.20;8.10;;;13.70;99.90;;;;;;5095615;28;20528;-77
2021/08/21 01:13:02;;;;;;;22.73;8.70;;;13.70;99.90;;;;;;5077934;28;20024;-78
2021/08/21 01:15:27;;;;;;;19.95;8.75;;;13.80;99.90;;;;;;5077740;28;20031;-78
2021/08/21 01:17:53;;;;;;;21.42;9.80;;;13.80;99.90;;;;;;5095995;28;20016;-77
2021/08/21 01:20:19;;;;;;;18.88;8.23;;;13.80;99.90;;;;;;5095860;28;20027;-78
2021/08/21 01:22:45;;;;;;;20.33;7.63;;;13.80;99.90;;;;;;5095194;28;20386;-77
2021/08/21 01:25:23;;;;;;;20.63;8.15;;;13.90;99.90;;;;;;5076743;28;20115;-76
2021/08/21 01:27:49;;;;;;;17.58;7.70;;;13.90;99.90;;;;;;5095426;28;20055;-78
2021/08/21 01:30:14;;;;;;;20.40;9.05;;;13.90;99.90;;;;;;5077338;28;20427;-78
2021/08/21 01:32:40;;;;;;;19.45;8.48;;;14.00;99.90;;;;;;5077381;28;20481;-78
2021/08/21 01:35:07;;;;;;;18.05;7.43;;;14.00;99.90;;;;;;5095596;28;20382;-78
2021/08/21 01:37:32;;;;;;;17.67;7.22;;;14.00;99.90;;;;;;5095526;28;20032;-78
2021/08/21 01:39:58;;;;;;;16.48;6.97;;;14.00;99.90;;;;;;5077306;28;20020;-78
2021/08/21 01:42:24;;;;;;;18.00;7.38;;;14.00;99.90;;;;;;5076817;28;20376;-77
2021/08/21 01:44:51;;;;;;;21.13;7.53;;;14.00;99.90;;;;;;5095029;28;20485;-80
2021/08/21 01:47:17;;;;;;;18.60;7.38;;;14.10;99.90;;;;;;5077386;28;20557;-80
2021/08/21 01:49:49;;;;;;;22.02;7.85;;;14.10;99.90;;;;;;5075703;28;20024;-78
2021/08/21 01:52:14;;;;;;;17.70;6.57;;;14.10;99.90;;;;;;5076576;28;20027;-77
2021/08/21 01:54:40;;;;;;;17.63;7.43;;;14.10;99.90;;;;;;5095108;28;20024;-80
2021/08/21 01:57:06;;;;;;;16.15;7.20;;;14.10;99.90;;;;;;5094697;28;20098;-78
2021/08/21 01:59:40;;;;;;;17.42;6.65;;;14.10;99.90;;;;;;5095404;28;20050;-77
2021/08/21 02:02:08;;;;;;;21.20;7.65;;;14.10;99.90;;;;;;5094609;28;20031;-77
2021/08/21 02:04:34;;;;;;;16.10;7.05;;;14.10;99.90;;;;;;5094601;28;20108;-80
2021/08/21 02:07:00;;;;;;;17.60;6.68;;;14.10;99.90;;;;;;5076282;28;20416;-76
2021/08/21 02:09:27;;;;;;;17.45;7.10;;;14.10;99.90;;;;;;5094398;28;20027;-79
2021/08/21 02:11:54;;;;;;;17.27;6.72;;;14.10;99.90;;;;;;5076450;28;20012;-76
2021/08/21 02:14:21;;;;;;;17.45;6.88;;;14.10;99.90;;;;;;5094530;28;20085;-77
2021/08/21 02:16:52;;;;;;;16.35;6.72;;;14.10;99.90;;;;;;5076048;28;20032;-76
2021/08/21 02:19:19;;;;;;;14.88;6.30;;;14.00;99.90;;;;;;5076263;28;20024;-76
2021/08/21 02:21:45;;;;;;;17.83;6.90;;;14.00;99.90;;;;;;5076115;28;20429;-80
2021/08/21 02:24:12;;;;;;;13.38;6.15;;;14.00;99.90;;;;;;5094727;28;20024;-78
2021/08/21 02:26:42;;;;;;;12.60;6.10;;;14.00;99.90;;;;;;5093982;28;20028;-77
2021/08/21 02:29:08;;;;;;;15.75;6.70;;;14.00;99.90;;;;;;5094346;28;20017;-77
2021/08/21 02:31:34;;;;;;;16.33;6.35;;;13.90;99.90;;;;;;5094020;28;20481;-76
2021/08/21 02:34:00;;;;;;;12.70;5.97;;;13.90;99.90;;;;;;5094322;28;20023;-80
2021/08/21 02:36:25;;;;;;;27.05;7.15;;;13.90;99.90;;;;;;5094538;28;20098;-80
2021/08/21 02:38:51;;;;;;;31.15;6.78;;;14.00;99.90;;;;;;5076037;28;20023;-78
2021/08/21 02:41:18;;;;;;;20.85;6.40;;;14.00;99.90;;;;;;5076653;28;20397;-80
2021/08/21 02:43:43;;;;;;;24.88;7.38;;;14.00;99.90;;;;;;5075743;28;20027;-80
2021/08/21 02:46:09;;;;;;;19.90;6.75;;;14.00;99.90;;;;;;5076566;28;20020;-78
2021/08/21 02:48:34;;;;;;;35.72;7.72;;;14.00;99.90;;;;;;5075511;28;20028;-77
2021/08/21 02:51:00;;;;;;;39.03;7.38;;;14.00;99.90;;;;;;5075495;28;20020;-77
2021/08/21 02:53:26;;;;;;;27.63;7.07;;;14.00;99.90;;;;;;5093663;28;20062;-78
2021/08/21 02:55:52;;;;;;;33.72;6.45;;;14.00;99.90;;;;;;5094051;28;20050;-76
2021/08/21 02:58:17;;;;;;;28.83;6.70;;;14.00;99.90;;;;;;5094097;28;20099;-78
2021/08/21 03:00:43;;;;;;;36.67;6.70;;;14.00;99.90;;;;;;5094441;28;20099;-78
2021/08/21 03:03:09;;;;;;;42.70;6.18;;;14.00;99.90;;;;;;5093449;28;20050;-77
2021/08/21 03:05:35;;;;;;;30.77;6.20;;;14.00;99.90;;;;;;5094101;28;20024;-78
2021/08/21 03:08:00;;;;;;;23.15;6.90;;;14.00;99.90;;;;;;5075723;28;20024;-77
2021/08/21 03:10:26;;;;;;;28.08;6.38;;;14.00;99.90;;;;;;5075316;28;20020;-77
2021/08/21 03:12:52;;;;;;;21.65;6.65;;;13.90;99.90;;;;;;5093183;28;20025;-76
2021/08/21 03:15:17;;;;;;;24.80;6.63;;;13.90;99.90;;;;;;5075641;28;20508;-76
2021/08/21 03:17:43;;;;;;;24.70;6.70;;;13.90;99.90;;;;;;5075324;28;20105;-77
2021/08/21 03:20:09;;;;;;;20.80;5.68;;;13.90;99.90;;;;;;5075595;28;20023;-77
2021/08/21 03:22:35;;;;;;;26.17;5.30;;;13.90;99.90;;;;;;5075056;28;20031;-78
2021/08/21 03:25:00;;;;;;;17.17;4.93;;;13.90;99.90;;;;;;5093301;28;20024;-78
2021/08/21 03:27:26;;;;;;;25.38;4.88;;;13.90;99.90;;;;;;5075776;28;20035;-77
2021/08/21 03:29:52;;;;;;;21.70;5.22;;;13.90;99.90;;;;;;5075541;28;20028;-80
2021/08/21 03:32:17;;;;;;;16.92;5.28;;;13.90;99.90;;;;;;5093876;28;20020;-80
2021/08/21 03:34:44;;;;;;;15.23;4.85;;;13.90;99.90;;;;;;5093733;28;20081;-76
2021/08/21 03:37:10;;;;;;;13.05;5.78;;;13.90;99.90;;;;;;5093054;28;20489;-76
2021/08/21 03:39:37;;;;;;;10.10;5.22;;;13.90;99.90;;;;;;5093758;28;20101;-78
2021/08/21 03:42:03;;;;;;;11.00;5.15;;;13.90;99.90;;;;;;5093493;28;20508;-77
2021/08/21 03:44:28;;;;;;;10.65;5.57;;;13.90;99.90;;;;;;5092942;28;20024;-77
2021/08/21 03:46:54;;;;;;;10.55;5.25;;;13.90;99.90;;;;;;5074965;28;20024;-77
2021/08/21 03:49:20;;;;;;;10.43;5.50;;;13.90;99.90;;;;;;5075481;28;20129;-77
2021/08/21 03:51:46;;;;;;;11.07;4.90;;;14.00;99.90;;;;;;5075141;28;20133;-76
2021/08/21 03:54:11;;;;;;;12.00;5.97;;;13.90;99.90;;;;;;5075011;28;20442;-77
2021/08/21 03:56:37;;;;;;;12.20;5.88;;;13.90;99.90;;;;;;5074923;28;20028;-76
2021/08/21 03:59:06;;;;;;;12.48;5.75;;;13.90;99.90;;;;;;5093786;28;20218;-80
2021/08/21 04:01:33;;;;;;;11.70;4.82;;;13.90;99.90;;;;;;5074747;28;20069;-77
2021/08/21 04:03:59;;;;;;;12.20;5.22;;;13.90;99.90;;;;;;5093513;28;20440;-79
2021/08/21 04:06:25;;;;;;;11.70;4.65;;;13.90;99.90;;;;;;5075085;28;20497;-76
2021/08/21 04:08:51;;;;;;;13.60;5.03;;;13.90;99.90;;;;;;5092877;28;20020;-76
2021/08/21 04:11:16;;;;;;;11.77;5.03;;;13.80;99.90;;;;;;5093050;28;20397;-78
2021/08/21 04:13:42;;;;;;;11.73;4.93;;;13.80;99.90;;;;;;5095647;28;20024;-77
2021/08/21 04:16:08;;;;;;;13.35;5.50;;;13.70;99.90;;;;;;5096696;28;20024;-77
2021/08/21 04:18:38;;;;;;;10.93;5.00;;;13.70;99.90;;;;;;5078544;28;20058;-76
2021/08/21 04:21:04;;;;;;;12.45;5.40;;;13.70;99.90;;;;;;5096615;28;20024;-76
2021/08/21 04:23:30;;;;;;;14.07;5.65;;;13.60;99.90;;;;;;5097105;28;20016;-79
2021/08/21 04:25:59;;;;;;;9.43;4.70;;;13.50;99.90;;;;;;5078107;28;20023;-79
2021/08/21 04:28:30;;;;;;;12.43;5.53;;;13.50;99.90;;;;;;5096554;28;20048;-76
2021/08/21 04:30:56;;;;;;;12.32;4.63;;;13.60;99.90;;;;;;5078534;28;20405;-80
2021/08/21 04:33:22;;;;;;;11.02;5.00;;;13.50;99.90;;;;;;5096394;28;20031;-76
2021/08/21 04:35:48;;;;;;;12.55;5.20;;;13.50;99.90;;;;;;5096106;28;20028;-78
2021/08/21 04:38:13;;;;;;;14.75;6.60;;;13.60;99.90;;;;;;5096479;28;20553;-77
2021/08/21 04:40:39;;;;;;;13.13;5.47;;;13.60;99.90;;;;;;5096214;28;20108;-78
2021/08/21 04:43:05;;;;;;;12.85;5.50;;;13.60;99.90;;;;;;5096198;28;20032;-76
2021/08/21 04:45:30;;;;;;;12.15;5.63;;;13.70;99.90;;;;;;5077735;28;20115;-77
2021/08/21 04:47:56;;;;;;;14.05;6.05;;;13.70;99.90;;;;;;5077961;28;20048;-77
2021/08/21 04:50:22;;;;;;;12.02;5.15;;;13.70;99.90;;;;;;5096364;28;20016;-78
2021/08/21 04:52:48;;;;;;;11.77;4.88;;;13.80;99.90;;;;;;5096769;28;20024;-80
2021/08/21 04:55:13;;;;;;;15.25;5.97;;;13.80;99.90;;;;;;5077833;28;20046;-76
2021/08/21 04:57:39;;;;;;;12.07;4.63;;;13.90;99.90;;;;;;5077808;28;20016;-77
2021/08/21 05:00:07;;;;;;;12.05;5.28;;;13.90;99.90;;;;;;5077607;28;20038;-77
2021/08/21 05:02:32;;;;;;;16.45;5.28;;;14.00;99.90;;;;;;5095700;28;20027;-79
2021/08/21 05:04:58;;;;;;;13.90;5.22;;;14.10;99.90;;;;;;5077669;28;20389;-77
2021/08/21 05:07:23;;;;;;;14.88;5.50;;;14.20;99.90;;;;;;5095782;28;20023;-77
2021/08/21 05:09:49;;;;;;;14.70;5.07;;;14.20;99.90;;;;;;5095426;28;20028;-77
2021/08/21 05:12:14;;;;;;;13.68;5.63;;;14.20;99.90;;;;;;5095534;28;20386;-77
2021/08/21 05:14:40;;;;;;;12.63;4.70;;;14.30;99.90;;;;;;5095965;28;20020;-76
2021/08/21 05:17:06;;;;;;;12.05;4.93;;;14.30;99.90;;;;;;5095704;28;20384;-79
2021/08/21 05:19:42;;;;;;;14.30;5.97;;;14.30;99.90;;;;;;5095882;28;20028;-78
2021/08/21 05:22:39;;;;;;;14.95;6.07;;;14.40;99.90;;;;;;5077656;28;20073;-78
2021/08/21 05:25:05;;;;;;;14.63;6.03;;;14.40;99.90;;;;;;5077088;28;20504;-78
2021/08/21 05:27:32;;;;;;;13.65;5.15;;;14.50;99.90;;;;;;5095730;28;20107;-77
2021/08/21 05:29:59;;;;;;;15.30;5.57;;;14.50;99.90;;;;;;5095372;28;20017;-77
2021/08/21 05:32:24;;;;;;;13.95;5.53;;;14.50;99.90;;;;;;5094959;28;20366;-77
2021/08/21 05:34:50;;;;;;;11.60;4.80;;;14.50;99.90;;;;;;5095068;28;20021;-77
2021/08/21 05:37:16;;;;;;;12.13;5.45;;;14.60;99.90;;;;;;5077061;28;20024;-76
2021/08/21 05:39:41;;;;;;;12.65;4.50;;;14.60;99.90;;;;;;5094850;28;20081;-78
2021/08/21 05:42:07;;;;;;;14.95;5.93;;;14.60;99.90;;;;;;5095275;28;20051;-76
2021/08/21 05:44:33;;;;;;;14.45;5.15;;;14.60;99.90;;;;;;5076628;28;20445;-80
2021/08/21 05:46:58;;;;;;;10.45;4.72;;;14.60;99.90;;;;;;5094939;28;20043;-80
2021/08/21 05:49:24;;;;;;;17.17;5.53;;;14.60;99.90;;;;;;5076852;28;20115;-76
2021/08/21 05:51:50;;;;;;;13.90;5.75;;;14.70;99.90;;;;;;5094402;28;20048;-76
2021/08/21 05:54:15;;;;;;;15.43;6.07;;;14.80;99.90;;;;;;5095072;28;20493;-76
2021/08/21 05:56:41;;;;;;;13.38;5.88;;;14.80;99.90;;;;;;5076437;28;20386;-76
2021/08/21 05:59:06;;;;;;;18.23;7.00;;;14.80;99.90;;;;;;5094500;28;20020;-76
2021/08/21 06:01:32;;;;;;;17.58;6.72;;;14.90;99.90;;;;;;5076198;28;20016;-76
2021/08/21 06:03:57;;;;;;;15.63;6.88;;;15.00;99.90;;;;;;5094546;28;20030;-77
2021/08/21 06:06:24;;;;;;;16.55;7.22;;;15.00;99.90;;;;;;5076488;28;20359;-77
2021/08/21 06:08:50;;;;;;;18.63;7.93;;;15.10;99.90;;;;;;5094585;28;20486;-77
2021/08/21 06:11:16;;;;;;;20.42;8.73;;;15.20;99.90;;;;;;5094928;28;20024;-77
2021/08/21 06:13:42;;;;;;;19.00;8.43;;;15.30;99.90;;;;;;5094638;28;20024;-77
2021/08/21 06:16:07;;;;;;;20.77;8.30;;;15.40;99.90;;;;;;5094371;28;20020;-77
2021/08/21 06:18:33;;;;;;;17.42;8.27;;;15.50;99.90;;;;;;5094585;28;20028;-77
2021/08/21 06:20:59;;;;;;;18.42;7.90;;;15.60;99.90;;;;;;5076136;28;20023;-77
2021/08/21 06:23:24;;;;;;;18.88;8.43;;;15.70;99.90;;;;;;5094500;28;20074;-77
2021/08/21 06:25:52;;;;;;;21.65;9.80;;;15.80;99.90;;;;;;5075958;28;20085;-77
2021/08/21 06:28:17;;;;;;;25.20;10.68;;;15.90;99.90;;;;;;5094248;28;20024;-77
2021/08/21 06:30:43;;;;;;;27.38;10.23;;;16.10;99.90;;;;;;5076059;28;20021;-77
2021/08/21 06:33:09;;;;;;;22.95;9.52;;;16.20;99.90;;;;;;5076572;28;20031;-77
2021/08/21 06:35:34;;;;;;;19.33;8.07;;;16.30;99.90;;;;;;5094264;28;20030;-77
2021/08/21 06:38:00;;;;;;;21.70;9.05;;;16.40;99.90;;;;;;5094309;28;20027;-77
2021/08/21 06:40:26;;;;;;;20.98;8.65;;;16.50;99.90;;;;;;5094155;28;20026;-77
2021/08/21 06:42:51;;;;;;;19.70;8.65;;;16.50;99.90;;;;;;5094662;28;20027;-80
2021/08/21 06:45:17;;;;;;;21.73;9.27;;;16.60;99.90;;;;;;5094136;28;20111;-77
2021/08/21 06:47:43;;;;;;;23.60;10.13;;;16.70;99.90;;;;;;5076615;28;20049;-78
2021/08/21 06:50:09;;;;;;;22.77;8.93;;;16.80;99.90;;;;;;5094205;28;20547;-78
2021/08/21 06:52:36;;;;;;;23.92;10.30;;;16.90;99.90;;;;;;5076382;28;20016;-76
2021/08/21 06:55:01;;;;;;;20.48;9.38;;;17.00;99.90;;;;;;5094865;28;20031;-80
2021/08/21 06:57:27;;;;;;;24.27;10.52;;;17.10;99.90;;;;;;5076769;28;20106;-80
2021/08/21 06:59:52;;;;;;;30.35;11.30;;;17.20;99.90;;;;;;5094144;28;20024;-77
2021/08/21 07:02:18;;;;;;;21.30;9.95;;;17.30;99.90;;;;;;5075662;28;20455;-78
2021/08/21 07:04:44;;;;;;;25.83;10.65;;;17.40;99.90;;;;;;5093426;28;20028;-75
2021/08/21 07:07:09;;;;;;;29.77;12.10;;;17.40;99.90;;;;;;5075203;28;20431;-76
2021/08/21 07:09:36;;;;;;;25.73;11.32;;;17.60;99.90;;;;;;5075200;28;20020;-76
2021/08/21 07:12:02;;;;;;;24.42;10.95;;;17.90;99.90;;;;;;5075581;28;20012;-78
2021/08/21 07:14:28;;;;;;;26.65;11.23;;;17.70;99.90;;;;;;5094051;28;20443;-78
2021/08/21 07:16:55;;;;;;;27.67;10.65;;;18.20;99.90;;;;;;5093806;28;20027;-76
2021/08/21 07:19:20;;;;;;;21.70;9.50;;;18.00;99.90;;;;;;5075295;28;20493;-78
2021/08/21 07:21:46;;;;;;;23.33;10.35;;;18.30;99.90;;;;;;5093587;28;20024;-80
2021/08/21 07:24:11;;;;;;;20.67;8.43;;;18.50;99.90;;;;;;5093113;28;20020;-76
2021/08/21 07:26:37;;;;;;;18.33;7.63;;;18.70;99.90;;;;;;5093212;28;20032;-77
2021/08/21 07:29:03;;;;;;;18.05;7.72;;;19.00;99.90;;;;;;5094620;28;20051;-80
2021/08/21 07:31:29;;;;;;;19.65;8.98;;;19.30;99.90;;;;;;5075580;28;20024;-76
2021/08/21 07:33:55;;;;;;;17.38;7.45;;;19.60;99.90;;;;;;5093036;28;20026;-75
2021/08/21 07:36:21;;;;;;;16.30;6.72;;;19.90;99.90;;;;;;5093234;28;20035;-77
2021/08/21 07:38:46;;;;;;;11.93;5.72;;;20.20;99.90;;;;;;5075124;28;20032;-75
2021/08/21 07:41:13;;;;;;;12.88;5.70;;;20.50;99.90;;;;;;5093771;28;20486;-78
2021/08/21 07:43:39;;;;;;;9.85;5.35;;;20.60;99.90;;;;;;5093331;28;20054;-77
2021/08/21 07:46:05;;;;;;;10.20;5.10;;;20.70;99.90;;;;;;5093627;28;20044;-77
2021/08/21 07:48:30;;;;;;;10.52;4.65;;;20.70;99.90;;;;;;5095049;28;20095;-78
2021/08/21 07:50:56;;;;;;;9.55;4.50;;;20.60;99.90;;;;;;5097372;28;20139;-77
2021/08/21 07:53:21;;;;;;;13.30;4.97;;;20.50;99.90;;;;;;5078997;28;20058;-78
2021/08/21 07:55:47;;;;;;;12.88;5.40;;;20.60;99.90;;;;;;5079127;28;20032;-77
2021/08/21 07:58:13;;;;;;;10.02;5.38;;;20.70;99.90;;;;;;5079259;28;20020;-78
2021/08/21 08:00:38;;;;;;;36.72;4.88;;;20.70;99.90;;;;;;5097322;28;20047;-77
2021/08/21 08:03:04;;;;;;;10.13;5.32;;;20.60;99.90;;;;;;5078669;28;20024;-77
2021/08/21 08:05:30;;;;;;;11.30;4.65;;;20.50;99.90;;;;;;5097021;28;20020;-77
2021/08/21 08:07:55;;;;;;;12.95;4.75;;;20.40;99.90;;;;;;5078544;28;20043;-77
2021/08/21 08:10:21;;;;;;;12.23;5.53;;;20.60;99.90;;;;;;5096948;28;20024;-77
2021/08/21 08:12:47;;;;;;;13.23;5.57;;;20.80;99.90;;;;;;5078458;28;20389;-80
2021/08/21 08:15:13;;;;;;;8.75;5.00;;;21.00;99.90;;;;;;5097483;28;20107;-77
2021/08/21 08:17:39;;;;;;;13.50;4.72;;;21.10;99.90;;;;;;5109335;22;20048;-80
2021/08/21 08:20:06;;;;;;;11.43;5.35;;;21.30;99.90;;;;;;5078820;28;20035;-77
2021/08/21 08:22:32;;;;;;;9.57;5.13;;;21.30;99.90;;;;;;5096745;28;20016;-76
2021/08/21 08:24:58;;;;;;;11.73;4.88;;;21.40;99.90;;;;;;5096464;28;20500;-76
2021/08/21 08:27:23;;;;;;;12.38;5.07;;;21.50;99.90;;;;;;5078239;28;20016;-76
2021/08/21 08:29:49;;;;;;;13.10;5.00;;;21.60;99.90;;;;;;5096301;28;20039;-75
2021/08/21 08:32:14;;;;;;;11.43;5.38;;;21.70;99.90;;;;;;5078272;28;20047;-77
2021/08/21 08:34:40;;;;;;;9.60;4.93;;;21.70;99.90;;;;;;5079238;28;20446;-77
2021/08/21 08:37:09;;;;;;;14.32;5.22;;;21.70;99.90;;;;;;5096336;28;20055;-77
2021/08/21 08:39:36;;;;;;;11.60;4.75;;;21.60;99.90;;;;;;5096120;28;20016;-77
2021/08/21 08:42:02;;;;;;;10.30;4.28;;;21.40;99.90;;;;;;5096486;28;20036;-77
2021/08/21 08:44:32;;;;;;;12.57;5.38;;;21.50;99.90;;;;;;5096292;28;20016;-76
2021/08/21 08:46:59;;;;;;;10.38;5.18;;;21.40;99.90;;;;;;5095915;28;20022;-76
2021/08/21 08:49:26;;;;;;;8.50;4.68;;;21.40;99.90;;;;;;5095705;28;20035;-76
2021/08/21 08:51:52;;;;;;;11.20;4.88;;;21.50;99.90;;;;;;5095871;28;20032;-77
2021/08/21 08:54:18;;;;;;;6.40;3.75;;;21.60;99.90;;;;;;5096225;28;20094;-78
2021/08/21 08:56:44;;;;;;;9.00;4.10;;;21.70;99.90;;;;;;5096478;28;20038;-76
2021/08/21 08:59:09;;;;;;;6.55;3.33;;;21.80;99.90;;;;;;5095013;28;20035;-76
2021/08/21 09:01:35;;;;;;;6.80;3.67;;;22.00;99.90;;;;;;5077958;28;20051;-78
2021/08/21 09:04:17;;;;;;;11.40;3.30;;;22.20;99.90;;;;;;5096391;28;20035;-76
2021/08/21 09:06:43;;;;;;;7.32;3.60;;;22.40;99.90;;;;;;5077705;28;20024;-78
2021/08/21 09:09:14;;;;;;;11.00;3.95;;;22.40;99.90;;;;;;5096907;28;20381;-80
2021/08/21 09:11:44;;;;;;;7.05;3.72;;;22.60;99.90;;;;;;5077896;28;20330;-80
2021/08/21 09:14:19;;;;;;;8.98;3.83;;;22.70;99.90;;;;;;5078469;28;20459;-76
2021/08/21 09:16:45;;;;;;;4.88;2.78;;;22.90;99.90;;;;;;5107471;22;20066;-79
2021/08/21 09:19:22;;;;;;;8.77;3.92;;;23.00;99.90;;;;;;5078329;28;20016;-77
2021/08/21 09:22:05;;;;;;;5.93;3.10;;;23.10;99.90;;;;;;5077504;28;20066;-78
2021/08/21 09:24:32;;;;;;;4.95;2.67;;;23.20;99.90;;;;;;5077003;28;20057;-78
2021/08/21 09:27:14;;;;;;;6.53;2.70;;;23.40;99.90;;;;;;5095288;28;20386;-77
2021/08/21 09:29:39;;;;;;;7.05;2.63;;;23.60;99.90;;;;;;5095074;28;20020;-76
2021/08/21 09:32:07;;;;;;;6.75;3.10;;;23.60;99.90;;;;;;5076810;28;20028;-76
2021/08/21 09:34:33;;;;;;;9.10;2.85;;;23.80;99.90;;;;;;5107677;22;20036;-76
2021/08/21 09:36:59;;;;;;;4.95;2.70;;;23.80;99.90;;;;;;5077190;28;20028;-77
2021/08/21 09:39:41;;;;;;;6.45;2.42;;;23.90;99.90;;;;;;5106805;22;20069;-77
2021/08/21 09:42:09;;;;;;;5.13;1.98;;;24.00;99.90;;;;;;5055366;28;20029;-76
2021/08/21 09:44:43;;;;;;;4.38;2.00;;;24.00;99.90;;;;;;5055122;28;20036;-77
2021/08/21 09:47:11;;;;;;;7.45;3.22;;;24.00;99.90;;;;;;5036810;28;20422;-78
2021/08/21 09:49:38;;;;;;;5.63;2.10;;;23.90;99.90;;;;;;5036948;28;20104;-75
2021/08/21 09:52:06;;;;;;;4.95;2.40;;;23.80;99.90;;;;;;5036692;28;20029;-78
2021/08/21 09:54:32;;;;;;;5.43;2.28;;;23.80;99.90;;;;;;5054968;28;20100;-77
2021/08/21 09:56:57;;;;;;;4.82;2.42;;;23.80;99.90;;;;;;5054996;28;20045;-80
2021/08/21 09:59:36;;;;;;;3.90;1.80;;;24.00;99.90;;;;;;5036659;28;20115;-77
2021/08/21 10:02:08;;;;;;;5.07;2.17;;;24.00;99.90;;;;;;5073914;22;20480;-78
2021/08/21 10:04:37;;;;;;;6.22;2.05;;;24.10;99.90;;;;;;5094818;28;20050;-76
2021/08/21 10:07:05;;;;;;;6.30;1.90;;;24.30;99.90;;;;;;5111381;22;20028;-75
2021/08/21 10:09:33;;;;;;;4.05;2.25;;;24.50;99.90;;;;;;5094466;28;20024;-77
2021/08/21 10:11:59;;;;;;;4.93;2.42;;;24.60;99.90;;;;;;5093902;28;20024;-77
2021/08/21 10:14:25;;;;;;;3.53;1.88;;;24.60;99.90;;;;;;5094463;28;20024;-77
2021/08/21 10:16:51;;;;;;;5.80;2.83;;;24.60;99.90;;;;;;5094492;28;20074;-78
2021/08/21 10:19:18;;;;;;;7.43;3.75;;;24.70;99.90;;;;;;5076555;28;20052;-78
2021/08/21 10:21:53;;;;;;;6.60;3.47;;;24.50;99.90;;;;;;5076265;28;20024;-76
2021/08/21 10:24:38;;;;;;;6.50;3.05;;;24.50;99.90;;;;;;5076006;28;20039;-77
2021/08/21 10:27:21;;;;;;;7.18;3.33;;;24.50;99.90;;;;;;5094560;28;20095;-77
2021/08/21 10:30:06;;;;;;;5.82;4.07;;;24.60;99.90;;;;;;5076354;28;20124;-80
2021/08/21 10:32:39;;;;;;;7.80;3.45;;;24.70;99.90;;;;;;5094258;28;20385;-78
2021/08/21 10:35:06;;;;;;;7.22;3.63;;;24.70;99.90;;;;;;5076714;28;20055;-76
2021/08/21 10:37:37;;;;;;;8.20;3.58;;;24.70;99.90;;;;;;5094241;28;20115;-79
2021/08/21 10:40:25;;;;;;;5.32;3.30;;;24.80;99.90;;;;;;5094401;28;20084;-75
2021/08/21 10:43:03;;;;;;;10.50;4.15;;;25.00;99.90;;;;;;5083591;28;20036;-77
2021/08/21 10:45:47;;;;;;;5.25;2.85;;;25.10;99.90;;;;;;5075732;28;20032;-75
2021/08/21 10:48:23;;;;;;;6.70;3.88;;;25.30;99.90;;;;;;5095345;28;20069;-76
2021/08/21 10:50:49;;;;;;;10.15;3.95;;;25.50;99.90;;;;;;5095462;28;20024;-78
2021/08/21 10:53:28;;;;;;;7.90;3.17;;;25.50;99.90;;;;;;5094230;28;20012;-77
2021/08/21 10:55:54;;;;;;;4.53;2.88;;;25.50;99.90;;;;;;5095081;28;20373;-80
2021/08/21 10:58:22;;;;;;;5.82;3.65;;;25.50;99.90;;;;;;5094964;28;20016;-79
2021/08/21 11:00:49;;;;;;;7.57;2.95;;;25.60;99.90;;;;;;5094178;28;20024;-76
2021/08/21 11:03:24;;;;;;;6.40;2.55;;;25.60;98.90;;;;;;5105559;22;20016;-75
2021/08/21 11:06:02;;;;;;;5.03;3.05;;;25.80;99.30;;;;;;5093935;28;20024;-78
2021/08/21 11:08:35;;;;;;;7.25;3.13;;;25.70;99.80;;;;;;5093606;28;20099;-76
2021/08/21 11:11:16;;;;;;;6.53;3.85;;;25.80;99.10;;;;;;5075740;28;20362;-80
2021/08/21 11:14:04;;;;;;;8.70;3.90;;;25.80;98.50;;;;;;5094621;28;20075;-78
2021/08/21 11:16:55;;;;;;;9.18;3.38;;;25.80;98.70;;;;;;5075354;28;20059;-76
2021/08/21 11:19:46;;;;;;;9.75;3.88;;;26.00;99.10;;;;;;5105601;22;20554;-78
2021/08/21 11:22:18;;;;;;;6.25;3.40;;;26.20;98.80;;;;;;5077271;28;20047;-75
2021/08/21 11:24:52;;;;;;;11.18;4.72;;;26.20;97.00;;;;;;5079290;28;20035;-76
2021/08/21 11:27:30;;;;;;;8.20;4.07;;;26.10;96.10;;;;;;5109795;22;20128;-77
2021/08/21 11:32:44;;;;;;;8.45;4.22;;;26.00;97.90;;;;;;5097667;28;20025;-76
2021/08/21 11:35:48;;;;;;;9.40;4.55;;;26.00;97.10;;;;;;5079074;28;20126;-76
2021/08/21 11:38:16;;;;;;;9.27;4.90;;;25.90;96.60;;;;;;5098083;28;20497;-78
2021/08/21 11:40:46;;;;;;;;;;;25.80;97.80;;;;;;5098153;28;20545;-78
2021/08/21 11:43:17;;;;;;;9.25;4.63;;;25.70;97.80;;;;;;5097750;28;19904;-78
2021/08/21 11:45:43;;;;;;;9.02;4.75;;;25.70;98.40;;;;;;5098597;28;20100;-78
2021/08/21 11:48:09;;;;;;;15.60;4.90;;;25.60;98.10;;;;;;5079418;28;20024;-78
2021/08/21 11:50:42;;;;;;;7.50;4.15;;;25.70;97.50;;;;;;5079346;28;20550;-78
2021/08/21 11:53:22;;;;;;;8.63;5.43;;;25.60;98.20;;;;;;5097889;28;20362;-78
2021/08/21 11:55:49;;;;;;;9.18;5.30;;;25.50;97.80;;;;;;5097926;28;20020;-78
2021/08/21 11:58:15;;;;;;;10.52;4.72;;;25.50;98.40;;;;;;5079320;28;20492;-78
2021/08/21 12:00:44;;;;;;;8.52;5.05;;;25.50;99.30;;;;;;5097417;28;20020;-78
2021/08/21 12:03:12;;;;;;;9.65;5.22;;;25.50;97.90;;;;;;5097173;28;20027;-78
2021/08/21 12:05:43;;;;;;;9.05;4.97;;;25.50;98.30;;;;;;5097863;28;20023;-78
2021/08/21 12:08:14;;;;;;;10.40;5.68;;;25.60;98.60;;;;;;5097222;28;20101;-78
2021/08/21 12:10:54;;;;;;;9.25;5.50;;;25.60;98.30;;;;;;5097063;28;20099;-78
2021/08/21 12:13:25;;;;;;;7.75;4.65;;;25.50;98.60;;;;;;5097148;28;20341;-77
2021/08/21 12:15:51;;;;;;;7.40;4.20;;;25.40;97.90;;;;;;5078869;28;20099;-77
2021/08/21 12:18:19;;;;;;;6.50;3.92;;;25.30;96.20;;;;;;5096942;28;20099;-77
2021/08/21 12:20:45;;;;;;;5.18;3.63;;;25.10;96.20;;;;;;5097750;28;20095;-77
2021/08/21 12:23:12;;;;;;;6.72;4.10;;;25.00;98.30;;;;;;5078683;28;20438;-80
2021/08/21 12:25:53;;;;;;;6.93;4.63;;;24.90;99.40;;;;;;5079326;28;20020;-77
2021/08/21 12:28:23;;;;;;;12.45;4.18;;;24.90;99.70;;;;;;5090355;22;20402;-76
2021/08/21 12:30:55;;;;;;;6.97;4.22;;;24.90;99.20;;;;;;5096747;28;20020;-76
2021/08/21 12:33:56;;;;;;;7.18;4.50;;;25.10;99.90;;;;;;5095590;28;20030;-80
2021/08/21 12:36:24;;;;;;;8.00;3.85;;;25.20;99.60;;;;;;5079170;28;20040;-78
2021/08/21 12:39:06;;;;;;;5.45;3.17;;;25.20;98.50;;;;;;5078796;28;20020;-75
2021/08/21 12:41:34;;;;;;;5.28;2.70;;;25.40;98.10;;;;;;5096934;28;20446;-77
2021/08/21 12:44:14;;;;;;;5.88;2.97;;;25.40;96.30;;;;;;5078772;28;20024;-76
2021/08/21 12:46:55;;;;;;;4.63;3.47;;;25.40;96.40;;;;;;5096031;28;20027;-77